sensor_id;sensor_type;location;lat;lon;timestamp;P1;durP1;ratioP1;P2;durP2;ratioP2
36923;SDS011;22841;50.252;18.688;2022-09-20T00:03:32;18.55;;;10.68;;
36923;SDS011;22841;50.252;18.688;2022-09-20T00:06:00;19.58;;;10.55;;
36923;SDS011;22841;50.252;18.688;2022-09-20T00:08:27;18.15;;;10.65;;
36923;SDS011;22841;50.252;18.688;2022-09-20T00:10:58;22.15;;;10.95;;
36923;SDS011;22841;50.252;18.688;2022-09-20T00:13:28;21.25;;;11.32;;
36923;SDS011;22841;50.252;18.688;2022-09-20T00:15:55;21.00;;;10.75;;
36923;SDS011;22841;50.252;18.688;2022-09-20T00:18:21;17.50;;;10.43;;
36923;SDS011;22841;50.252;18.688;2022-09-20T00:20:49;18.85;;;10.15;;
36923;SDS011;22841;50.252;18.688;2022-09-20T00:23:15;17.70;;;9.93;;
36923;SDS011;22841;50.252;18.688;2022-09-20T00:25:42;16.60;;;10.85;;
36923;SDS011;22841;50.252;18.688;2022-09-20T00:28:08;15.10;;;9.85;;
36923;SDS011;22841;50.252;18.688;2022-09-20T00:30:35;15.57;;;9.48;;
36923;SDS011;22841;50.252;18.688;2022-09-20T00:33:02;15.80;;;10.68;;
36923;SDS011;22841;50.252;18.688;2022-09-20T00:35:28;24.52;;;11.60;;
36923;SDS011;22841;50.252;18.688;2022-09-20T00:37:55;22.33;;;9.93;;
36923;SDS011;22841;50.252;18.688;2022-09-20T00:40:23;16.17;;;9.57;;
36923;SDS011;22841;50.252;18.688;2022-09-20T00:42:51;16.27;;;9.40;;
36923;SDS011;22841;50.252;18.688;2022-09-20T00:47:52;16.10;;;9.05;;
36923;SDS011;22841;50.252;18.688;2022-09-20T00:50:32;16.33;;;8.40;;
36923;SDS011;22841;50.252;18.688;2022-09-20T00:56:06;14.75;;;8.45;;
36923;SDS011;22841;50.252;18.688;2022-09-20T00:59:05;11.52;;;7.93;;
36923;SDS011;22841;50.252;18.688;2022-09-20T01:02:10;17.50;;;8.65;;
36923;SDS011;22841;50.252;18.688;2022-09-20T01:04:41;14.27;;;7.97;;
36923;SDS011;22841;50.252;18.688;2022-09-20T01:07:10;14.07;;;7.50;;
36923;SDS011;22841;50.252;18.688;2022-09-20T01:09:40;16.02;;;8.27;;
36923;SDS011;22841;50.252;18.688;2022-09-20T01:12:08;13.23;;;7.75;;
36923;SDS011;22841;50.252;18.688;2022-09-20T01:14:39;14.95;;;7.38;;
36923;SDS011;22841;50.252;18.688;2022-09-20T01:17:08;11.95;;;7.85;;
36923;SDS011;22841;50.252;18.688;2022-09-20T01:22:32;12.98;;;7.10;;
36923;SDS011;22841;50.252;18.688;2022-09-20T01:28:05;8.70;;;6.18;;
36923;SDS011;22841;50.252;18.688;2022-09-20T01:30:35;9.45;;;6.30;;
36923;SDS011;22841;50.252;18.688;2022-09-20T01:35:43;13.30;;;7.22;;
36923;SDS011;22841;50.252;18.688;2022-09-20T01:38:28;9.02;;;6.38;;
36923;SDS011;22841;50.252;18.688;2022-09-20T01:46:28;12.25;;;6.90;;
36923;SDS011;22841;50.252;18.688;2022-09-20T01:49:00;13.77;;;6.90;;
36923;SDS011;22841;50.252;18.688;2022-09-20T01:54:32;12.68;;;7.45;;
36923;SDS011;22841;50.252;18.688;2022-09-20T02:02:55;15.50;;;7.15;;
36923;SDS011;22841;50.252;18.688;2022-09-20T02:08:28;10.82;;;7.63;;
36923;SDS011;22841;50.252;18.688;2022-09-20T02:11:37;20.08;;;8.23;;
36923;SDS011;22841;50.252;18.688;2022-09-20T02:17:13;14.00;;;7.65;;
36923;SDS011;22841;50.252;18.688;2022-09-20T02:23:07;15.38;;;8.30;;
36923;SDS011;22841;50.252;18.688;2022-09-20T02:26:04;12.70;;;8.80;;
36923;SDS011;22841;50.252;18.688;2022-09-20T02:31:32;19.85;;;9.30;;
36923;SDS011;22841;50.252;18.688;2022-09-20T02:40:07;16.65;;;9.85;;
36923;SDS011;22841;50.252;18.688;2022-09-20T02:43:10;18.48;;;9.93;;
36923;SDS011;22841;50.252;18.688;2022-09-20T02:51:45;20.25;;;10.57;;
36923;SDS011;22841;50.252;18.688;2022-09-20T03:02:03;16.45;;;10.10;;
36923;SDS011;22841;50.252;18.688;2022-09-20T03:04:55;20.17;;;10.13;;
36923;SDS011;22841;50.252;18.688;2022-09-20T03:07:40;13.48;;;8.73;;
36923;SDS011;22841;50.252;18.688;2022-09-20T03:10:42;17.23;;;9.57;;
36923;SDS011;22841;50.252;18.688;2022-09-20T03:13:21;18.95;;;9.10;;
36923;SDS011;22841;50.252;18.688;2022-09-20T03:24:42;14.02;;;8.90;;
36923;SDS011;22841;50.252;18.688;2022-09-20T03:27:26;15.43;;;9.50;;
36923;SDS011;22841;50.252;18.688;2022-09-20T03:32:59;17.80;;;9.88;;
36923;SDS011;22841;50.252;18.688;2022-09-20T03:36:05;18.52;;;10.73;;
36923;SDS011;22841;50.252;18.688;2022-09-20T03:44:15;17.65;;;11.40;;
36923;SDS011;22841;50.252;18.688;2022-09-20T03:47:07;14.60;;;11.20;;
36923;SDS011;22841;50.252;18.688;2022-09-20T03:50:15;15.63;;;10.65;;
36923;SDS011;22841;50.252;18.688;2022-09-20T03:53:00;16.50;;;11.30;;
36923;SDS011;22841;50.252;18.688;2022-09-20T04:01:37;18.55;;;13.50;;
36923;SDS011;22841;50.252;18.688;2022-09-20T04:04:22;21.38;;;14.43;;
36923;SDS011;22841;50.252;18.688;2022-09-20T04:13:00;23.38;;;13.00;;
36923;SDS011;22841;50.252;18.688;2022-09-20T04:15:57;28.50;;;13.85;;
36923;SDS011;22841;50.252;18.688;2022-09-20T04:18:54;15.48;;;11.70;;
36923;SDS011;22841;50.252;18.688;2022-09-20T04:21:56;16.55;;;12.80;;
36923;SDS011;22841;50.252;18.688;2022-09-20T04:27:27;17.77;;;13.10;;
36923;SDS011;22841;50.252;18.688;2022-09-20T04:30:17;16.73;;;11.98;;
36923;SDS011;22841;50.252;18.688;2022-09-20T04:33:24;17.58;;;11.93;;
36923;SDS011;22841;50.252;18.688;2022-09-20T05:13:45;14.50;;;10.75;;
36923;SDS011;22841;50.252;18.688;2022-09-20T05:21:51;14.75;;;10.55;;
36923;SDS011;22841;50.252;18.688;2022-09-20T05:24:28;16.35;;;10.85;;
36923;SDS011;22841;50.252;18.688;2022-09-20T05:32:32;17.90;;;11.40;;
36923;SDS011;22841;50.252;18.688;2022-09-20T05:35:16;13.98;;;10.63;;
36923;SDS011;22841;50.252;18.688;2022-09-20T05:37:55;18.42;;;11.85;;
36923;SDS011;22841;50.252;18.688;2022-09-20T05:43:35;14.68;;;10.82;;
36923;SDS011;22841;50.252;18.688;2022-09-20T05:49:14;14.00;;;10.35;;
36923;SDS011;22841;50.252;18.688;2022-09-20T05:54:50;16.17;;;9.70;;
36923;SDS011;22841;50.252;18.688;2022-09-20T05:57:41;13.95;;;10.18;;
36923;SDS011;22841;50.252;18.688;2022-09-20T06:00:21;12.65;;;8.82;;
36923;SDS011;22841;50.252;18.688;2022-09-20T06:02:56;20.77;;;8.77;;
36923;SDS011;22841;50.252;18.688;2022-09-20T06:11:13;10.98;;;8.57;;
36923;SDS011;22841;50.252;18.688;2022-09-20T06:13:46;13.88;;;9.18;;
36923;SDS011;22841;50.252;18.688;2022-09-20T06:16:34;11.32;;;9.05;;
36923;SDS011;22841;50.252;18.688;2022-09-20T06:21:56;10.23;;;8.25;;
36923;SDS011;22841;50.252;18.688;2022-09-20T06:25:55;11.73;;;7.95;;
36923;SDS011;22841;50.252;18.688;2022-09-20T06:28:12;10.43;;;7.40;;
36923;SDS011;22841;50.252;18.688;2022-09-20T06:30:44;9.43;;;7.50;;
36923;SDS011;22841;50.252;18.688;2022-09-20T06:33:16;8.85;;;6.80;;
36923;SDS011;22841;50.252;18.688;2022-09-20T06:41:37;7.82;;;4.82;;
36923;SDS011;22841;50.252;18.688;2022-09-20T06:44:05;6.90;;;5.97;;
36923;SDS011;22841;50.252;18.688;2022-09-20T06:46:32;6.43;;;5.55;;
36923;SDS011;22841;50.252;18.688;2022-09-20T06:49:00;5.00;;;4.43;;
36923;SDS011;22841;50.252;18.688;2022-09-20T06:51:32;7.63;;;4.45;;
36923;SDS011;22841;50.252;18.688;2022-09-20T06:53:59;4.72;;;4.32;;
36923;SDS011;22841;50.252;18.688;2022-09-20T06:56:30;6.30;;;4.93;;
36923;SDS011;22841;50.252;18.688;2022-09-20T06:59:01;12.50;;;5.82;;
36923;SDS011;22841;50.252;18.688;2022-09-20T07:01:28;10.95;;;5.72;;
36923;SDS011;22841;50.252;18.688;2022-09-20T07:03:54;7.45;;;5.28;;
36923;SDS011;22841;50.252;18.688;2022-09-20T07:06:20;5.72;;;5.13;;
36923;SDS011;22841;50.252;18.688;2022-09-20T07:08:46;9.98;;;5.90;;
36923;SDS011;22841;50.252;18.688;2022-09-20T07:11:13;5.72;;;5.20;;
36923;SDS011;22841;50.252;18.688;2022-09-20T07:13:41;7.65;;;5.60;;
36923;SDS011;22841;50.252;18.688;2022-09-20T07:16:12;7.15;;;6.35;;
36923;SDS011;22841;50.252;18.688;2022-09-20T07:18:38;9.30;;;8.02;;
36923;SDS011;22841;50.252;18.688;2022-09-20T07:21:06;8.68;;;7.60;;
36923;SDS011;22841;50.252;18.688;2022-09-20T07:23:35;10.82;;;7.35;;
36923;SDS011;22841;50.252;18.688;2022-09-20T07:26:01;12.45;;;7.20;;
36923;SDS011;22841;50.252;18.688;2022-09-20T07:28:28;8.73;;;7.35;;
36923;SDS011;22841;50.252;18.688;2022-09-20T07:30:55;8.85;;;7.38;;
36923;SDS011;22841;50.252;18.688;2022-09-20T07:33:21;11.68;;;7.47;;
36923;SDS011;22841;50.252;18.688;2022-09-20T07:35:52;11.95;;;7.57;;
36923;SDS011;22841;50.252;18.688;2022-09-20T07:38:20;11.75;;;8.15;;
36923;SDS011;22841;50.252;18.688;2022-09-20T07:40:56;10.45;;;8.35;;
36923;SDS011;22841;50.252;18.688;2022-09-20T07:43:25;9.20;;;8.27;;
36923;SDS011;22841;50.252;18.688;2022-09-20T07:45:52;11.88;;;9.98;;
36923;SDS011;22841;50.252;18.688;2022-09-20T07:48:21;11.57;;;9.50;;
36923;SDS011;22841;50.252;18.688;2022-09-20T07:50:51;13.15;;;9.93;;
36923;SDS011;22841;50.252;18.688;2022-09-20T07:53:18;13.23;;;9.93;;
36923;SDS011;22841;50.252;18.688;2022-09-20T07:55:54;15.75;;;9.40;;
36923;SDS011;22841;50.252;18.688;2022-09-20T07:58:26;13.60;;;10.20;;
36923;SDS011;22841;50.252;18.688;2022-09-20T08:00:54;12.88;;;8.57;;
36923;SDS011;22841;50.252;18.688;2022-09-20T08:03:21;13.40;;;9.27;;
36923;SDS011;22841;50.252;18.688;2022-09-20T08:05:49;13.55;;;9.63;;
36923;SDS011;22841;50.252;18.688;2022-09-20T08:08:16;12.25;;;9.73;;
36923;SDS011;22841;50.252;18.688;2022-09-20T08:10:45;9.02;;;8.13;;
36923;SDS011;22841;50.252;18.688;2022-09-20T08:13:13;14.40;;;8.55;;
36923;SDS011;22841;50.252;18.688;2022-09-20T08:15:40;13.50;;;7.97;;
36923;SDS011;22841;50.252;18.688;2022-09-20T08:18:07;15.02;;;7.65;;
36923;SDS011;22841;50.252;18.688;2022-09-20T08:20:37;6.60;;;4.78;;
36923;SDS011;22841;50.252;18.688;2022-09-20T08:23:04;5.78;;;4.40;;
36923;SDS011;22841;50.252;18.688;2022-09-20T08:25:31;7.50;;;5.22;;
36923;SDS011;22841;50.252;18.688;2022-09-20T08:27:57;5.65;;;3.85;;
36923;SDS011;22841;50.252;18.688;2022-09-20T08:30:23;10.27;;;4.18;;
36923;SDS011;22841;50.252;18.688;2022-09-20T08:32:49;8.05;;;5.15;;
36923;SDS011;22841;50.252;18.688;2022-09-20T08:35:16;8.65;;;5.15;;
36923;SDS011;22841;50.252;18.688;2022-09-20T08:37:42;5.65;;;4.05;;
36923;SDS011;22841;50.252;18.688;2022-09-20T08:40:12;5.93;;;4.72;;
36923;SDS011;22841;50.252;18.688;2022-09-20T08:42:43;5.63;;;3.92;;
36923;SDS011;22841;50.252;18.688;2022-09-20T08:45:14;3.38;;;2.72;;
36923;SDS011;22841;50.252;18.688;2022-09-20T08:47:46;5.22;;;2.25;;
36923;SDS011;22841;50.252;18.688;2022-09-20T08:50:18;5.30;;;2.33;;
36923;SDS011;22841;50.252;18.688;2022-09-20T08:52:46;4.20;;;2.30;;
36923;SDS011;22841;50.252;18.688;2022-09-20T08:55:15;3.50;;;2.50;;
36923;SDS011;22841;50.252;18.688;2022-09-20T08:57:42;4.43;;;2.60;;
36923;SDS011;22841;50.252;18.688;2022-09-20T09:00:14;3.72;;;2.60;;
36923;SDS011;22841;50.252;18.688;2022-09-20T09:02:43;2.20;;;2.00;;
36923;SDS011;22841;50.252;18.688;2022-09-20T09:05:33;2.45;;;2.25;;
36923;SDS011;22841;50.252;18.688;2022-09-20T09:07:59;8.70;;;4.88;;
36923;SDS011;22841;50.252;18.688;2022-09-20T09:10:44;11.55;;;4.53;;
36923;SDS011;22841;50.252;18.688;2022-09-20T09:16:09;4.60;;;1.75;;
36923;SDS011;22841;50.252;18.688;2022-09-20T09:18:39;5.50;;;2.50;;
36923;SDS011;22841;50.252;18.688;2022-09-20T09:21:20;5.07;;;1.80;;
36923;SDS011;22841;50.252;18.688;2022-09-20T09:26:21;3.63;;;2.22;;
36923;SDS011;22841;50.252;18.688;2022-09-20T09:31:38;6.97;;;2.70;;
36923;SDS011;22841;50.252;18.688;2022-09-20T09:34:16;6.10;;;2.42;;
36923;SDS011;22841;50.252;18.688;2022-09-20T09:36:51;5.43;;;2.38;;
36923;SDS011;22841;50.252;18.688;2022-09-20T09:39:23;4.55;;;2.67;;
36923;SDS011;22841;50.252;18.688;2022-09-20T09:41:51;4.45;;;2.55;;
36923;SDS011;22841;50.252;18.688;2022-09-20T09:46:52;1.98;;;1.80;;
36923;SDS011;22841;50.252;18.688;2022-09-20T09:49:20;3.05;;;1.67;;
36923;SDS011;22841;50.252;18.688;2022-09-20T09:54:38;7.22;;;3.58;;
36923;SDS011;22841;50.252;18.688;2022-09-20T10:02:28;2.05;;;1.60;;
36923;SDS011;22841;50.252;18.688;2022-09-20T10:05:17;2.28;;;1.98;;
36923;SDS011;22841;50.252;18.688;2022-09-20T10:08:36;8.25;;;4.18;;
36923;SDS011;22841;50.252;18.688;2022-09-20T10:16:03;5.88;;;2.90;;
36923;SDS011;22841;50.252;18.688;2022-09-20T10:35:35;11.90;;;7.97;;
36923;SDS011;22841;50.252;18.688;2022-09-20T10:38:17;9.73;;;7.72;;
36923;SDS011;22841;50.252;18.688;2022-09-20T10:41:23;9.77;;;6.97;;
36923;SDS011;22841;50.252;18.688;2022-09-20T10:54:53;9.18;;;6.72;;
36923;SDS011;22841;50.252;18.688;2022-09-20T11:00:42;7.20;;;5.57;;
36923;SDS011;22841;50.252;18.688;2022-09-20T11:06:07;5.85;;;5.20;;
36923;SDS011;22841;50.252;18.688;2022-09-20T11:08:42;6.15;;;4.68;;
36923;SDS011;22841;50.252;18.688;2022-09-20T11:11:12;6.95;;;4.38;;
36923;SDS011;22841;50.252;18.688;2022-09-20T11:13:48;7.80;;;3.95;;
36923;SDS011;22841;50.252;18.688;2022-09-20T11:16:51;9.88;;;5.15;;
36923;SDS011;22841;50.252;18.688;2022-09-20T11:19:31;8.02;;;4.95;;
36923;SDS011;22841;50.252;18.688;2022-09-20T11:22:34;4.95;;;3.50;;
36923;SDS011;22841;50.252;18.688;2022-09-20T11:25:15;3.50;;;3.20;;
36923;SDS011;22841;50.252;18.688;2022-09-20T11:28:16;5.93;;;2.38;;
36923;SDS011;22841;50.252;18.688;2022-09-20T11:31:03;4.43;;;2.40;;
36923;SDS011;22841;50.252;18.688;2022-09-20T11:33:45;6.07;;;3.15;;
36923;SDS011;22841;50.252;18.688;2022-09-20T11:36:24;4.55;;;2.53;;
36923;SDS011;22841;50.252;18.688;2022-09-20T11:41:30;1.80;;;1.40;;
36923;SDS011;22841;50.252;18.688;2022-09-20T11:44:04;2.78;;;1.58;;
36923;SDS011;22841;50.252;18.688;2022-09-20T11:46:40;1.73;;;1.60;;
36923;SDS011;22841;50.252;18.688;2022-09-20T11:49:22;1.98;;;1.73;;
36923;SDS011;22841;50.252;18.688;2022-09-20T11:57:32;2.78;;;2.42;;
36923;SDS011;22841;50.252;18.688;2022-09-20T11:59:59;2.72;;;2.22;;
36923;SDS011;22841;50.252;18.688;2022-09-20T12:02:31;3.50;;;2.22;;
36923;SDS011;22841;50.252;18.688;2022-09-20T12:07:52;5.60;;;2.50;;
36923;SDS011;22841;50.252;18.688;2022-09-20T12:10:27;1.92;;;1.45;;
36923;SDS011;22841;50.252;18.688;2022-09-20T12:12:59;1.63;;;1.52;;
36923;SDS011;22841;50.252;18.688;2022-09-20T12:15:28;3.10;;;2.03;;
36923;SDS011;22841;50.252;18.688;2022-09-20T12:26:07;1.33;;;1.20;;
36923;SDS011;22841;50.252;18.688;2022-09-20T12:28:46;1.50;;;1.38;;
36923;SDS011;22841;50.252;18.688;2022-09-20T12:33:55;2.33;;;1.27;;
36923;SDS011;22841;50.252;18.688;2022-09-20T12:36:44;2.42;;;1.75;;
36923;SDS011;22841;50.252;18.688;2022-09-20T12:39:35;2.65;;;1.63;;
36923;SDS011;22841;50.252;18.688;2022-09-20T12:44:38;1.45;;;1.35;;
36923;SDS011;22841;50.252;18.688;2022-09-20T13:05:45;3.53;;;1.80;;
36923;SDS011;22841;50.252;18.688;2022-09-20T13:08:26;2.25;;;1.88;;
36923;SDS011;22841;50.252;18.688;2022-09-20T13:11:07;4.00;;;1.65;;
36923;SDS011;22841;50.252;18.688;2022-09-20T13:13:39;2.42;;;1.67;;
36923;SDS011;22841;50.252;18.688;2022-09-20T13:19:02;3.40;;;1.55;;
36923;SDS011;22841;50.252;18.688;2022-09-20T13:21:43;4.70;;;1.60;;
36923;SDS011;22841;50.252;18.688;2022-09-20T13:24:18;5.18;;;1.90;;
36923;SDS011;22841;50.252;18.688;2022-09-20T13:26:47;3.92;;;1.92;;
36923;SDS011;22841;50.252;18.688;2022-09-20T13:32:21;4.05;;;1.85;;
36923;SDS011;22841;50.252;18.688;2022-09-20T13:35:06;4.25;;;1.80;;
36923;SDS011;22841;50.252;18.688;2022-09-20T13:37:36;3.67;;;1.90;;
36923;SDS011;22841;50.252;18.688;2022-09-20T13:40:04;2.85;;;1.88;;
36923;SDS011;22841;50.252;18.688;2022-09-20T13:42:31;2.33;;;1.40;;
36923;SDS011;22841;50.252;18.688;2022-09-20T13:45:01;5.05;;;2.92;;
36923;SDS011;22841;50.252;18.688;2022-09-20T13:47:29;4.13;;;2.30;;
36923;SDS011;22841;50.252;18.688;2022-09-20T13:50:00;4.55;;;2.58;;
36923;SDS011;22841;50.252;18.688;2022-09-20T13:52:32;4.75;;;2.70;;
36923;SDS011;22841;50.252;18.688;2022-09-20T13:54:58;1.40;;;1.30;;
36923;SDS011;22841;50.252;18.688;2022-09-20T13:57:26;2.25;;;1.50;;
36923;SDS011;22841;50.252;18.688;2022-09-20T13:59:53;1.42;;;1.33;;
36923;SDS011;22841;50.252;18.688;2022-09-20T14:02:22;2.75;;;1.58;;
36923;SDS011;22841;50.252;18.688;2022-09-20T14:04:53;2.05;;;1.70;;
36923;SDS011;22841;50.252;18.688;2022-09-20T14:07:20;1.73;;;1.30;;
36923;SDS011;22841;50.252;18.688;2022-09-20T14:09:54;3.28;;;1.50;;
36923;SDS011;22841;50.252;18.688;2022-09-20T14:12:22;2.85;;;1.50;;
36923;SDS011;22841;50.252;18.688;2022-09-20T14:14:50;5.20;;;1.50;;
36923;SDS011;22841;50.252;18.688;2022-09-20T14:17:17;9.45;;;5.32;;
36923;SDS011;22841;50.252;18.688;2022-09-20T14:19:48;3.30;;;1.95;;
36923;SDS011;22841;50.252;18.688;2022-09-20T14:22:23;2.47;;;2.15;;
36923;SDS011;22841;50.252;18.688;2022-09-20T14:25:02;7.15;;;3.10;;
36923;SDS011;22841;50.252;18.688;2022-09-20T14:27:37;1.42;;;1.33;;
36923;SDS011;22841;50.252;18.688;2022-09-20T14:30:04;1.60;;;1.50;;
36923;SDS011;22841;50.252;18.688;2022-09-20T14:32:38;4.88;;;1.15;;
36923;SDS011;22841;50.252;18.688;2022-09-20T14:35:15;1.90;;;1.40;;
36923;SDS011;22841;50.252;18.688;2022-09-20T14:37:44;7.13;;;4.60;;
36923;SDS011;22841;50.252;18.688;2022-09-20T14:42:58;1.65;;;1.20;;
36923;SDS011;22841;50.252;18.688;2022-09-20T14:45:49;4.82;;;1.60;;
36923;SDS011;22841;50.252;18.688;2022-09-20T14:50:42;3.67;;;1.85;;
36923;SDS011;22841;50.252;18.688;2022-09-20T14:55:37;1.70;;;1.60;;
36923;SDS011;22841;50.252;18.688;2022-09-20T14:58:23;2.15;;;1.65;;
36923;SDS011;22841;50.252;18.688;2022-09-20T15:00:51;1.55;;;1.42;;
36923;SDS011;22841;50.252;18.688;2022-09-20T15:03:24;1.75;;;1.60;;
36923;SDS011;22841;50.252;18.688;2022-09-20T15:06:02;3.42;;;2.10;;
36923;SDS011;22841;50.252;18.688;2022-09-20T15:08:28;5.63;;;3.08;;
36923;SDS011;22841;50.252;18.688;2022-09-20T15:10:54;3.17;;;2.10;;
36923;SDS011;22841;50.252;18.688;2022-09-20T15:13:20;3.60;;;2.20;;
36923;SDS011;22841;50.252;18.688;2022-09-20T15:15:50;3.67;;;2.78;;
36923;SDS011;22841;50.252;18.688;2022-09-20T15:18:22;5.28;;;3.22;;
36923;SDS011;22841;50.252;18.688;2022-09-20T15:20:51;4.22;;;2.80;;
36923;SDS011;22841;50.252;18.688;2022-09-20T15:23:18;15.02;;;7.93;;
36923;SDS011;22841;50.252;18.688;2022-09-20T15:25:45;11.15;;;5.78;;
36923;SDS011;22841;50.252;18.688;2022-09-20T15:28:16;55.55;;;27.88;;
36923;SDS011;22841;50.252;18.688;2022-09-20T15:30:43;11.55;;;8.55;;
36923;SDS011;22841;50.252;18.688;2022-09-20T15:33:10;7.30;;;4.85;;
36923;SDS011;22841;50.252;18.688;2022-09-20T15:35:38;8.20;;;4.05;;
36923;SDS011;22841;50.252;18.688;2022-09-20T15:38:05;11.02;;;6.50;;
36923;SDS011;22841;50.252;18.688;2022-09-20T15:40:42;18.23;;;8.53;;
36923;SDS011;22841;50.252;18.688;2022-09-20T15:43:12;11.07;;;7.63;;
36923;SDS011;22841;50.252;18.688;2022-09-20T15:48:15;15.43;;;7.18;;
36923;SDS011;22841;50.252;18.688;2022-09-20T15:50:58;15.43;;;8.13;;
36923;SDS011;22841;50.252;18.688;2022-09-20T15:53:29;8.50;;;4.57;;
36923;SDS011;22841;50.252;18.688;2022-09-20T15:56:01;11.32;;;6.15;;
36923;SDS011;22841;50.252;18.688;2022-09-20T15:58:51;10.30;;;5.88;;
36923;SDS011;22841;50.252;18.688;2022-09-20T16:01:29;4.18;;;3.15;;
36923;SDS011;22841;50.252;18.688;2022-09-20T16:04:04;9.70;;;4.07;;
36923;SDS011;22841;50.252;18.688;2022-09-20T16:06:32;5.57;;;2.90;;
36923;SDS011;22841;50.252;18.688;2022-09-20T16:08:58;12.43;;;3.00;;
36923;SDS011;22841;50.252;18.688;2022-09-20T16:11:24;6.70;;;4.03;;
36923;SDS011;22841;50.252;18.688;2022-09-20T16:13:52;16.02;;;7.15;;
36923;SDS011;22841;50.252;18.688;2022-09-20T16:16:19;12.88;;;5.63;;
36923;SDS011;22841;50.252;18.688;2022-09-20T16:18:45;12.48;;;5.10;;
36923;SDS011;22841;50.252;18.688;2022-09-20T16:21:30;7.97;;;4.80;;
36923;SDS011;22841;50.252;18.688;2022-09-20T16:23:56;10.13;;;3.72;;
36923;SDS011;22841;50.252;18.688;2022-09-20T16:26:25;5.68;;;3.70;;
36923;SDS011;22841;50.252;18.688;2022-09-20T16:28:52;7.07;;;4.07;;
36923;SDS011;22841;50.252;18.688;2022-09-20T16:31:36;12.70;;;7.07;;
36923;SDS011;22841;50.252;18.688;2022-09-20T16:34:11;39.20;;;21.70;;
36923;SDS011;22841;50.252;18.688;2022-09-20T16:36:37;54.47;;;30.55;;
36923;SDS011;22841;50.252;18.688;2022-09-20T16:39:06;53.53;;;32.22;;
36923;SDS011;22841;50.252;18.688;2022-09-20T16:41:32;34.25;;;20.88;;
36923;SDS011;22841;50.252;18.688;2022-09-20T16:43:58;26.05;;;13.10;;
36923;SDS011;22841;50.252;18.688;2022-09-20T16:46:24;31.55;;;17.33;;
36923;SDS011;22841;50.252;18.688;2022-09-20T16:48:55;27.58;;;13.45;;
36923;SDS011;22841;50.252;18.688;2022-09-20T16:51:28;28.40;;;13.75;;
36923;SDS011;22841;50.252;18.688;2022-09-20T16:53:57;31.02;;;12.90;;
36923;SDS011;22841;50.252;18.688;2022-09-20T16:56:26;24.77;;;10.90;;
36923;SDS011;22841;50.252;18.688;2022-09-20T16:58:54;23.83;;;11.65;;
36923;SDS011;22841;50.252;18.688;2022-09-20T17:01:20;20.35;;;9.73;;
36923;SDS011;22841;50.252;18.688;2022-09-20T17:03:46;13.45;;;7.28;;
36923;SDS011;22841;50.252;18.688;2022-09-20T17:06:13;10.65;;;6.38;;
36923;SDS011;22841;50.252;18.688;2022-09-20T17:08:40;7.72;;;4.55;;
36923;SDS011;22841;50.252;18.688;2022-09-20T17:11:10;10.15;;;5.47;;
36923;SDS011;22841;50.252;18.688;2022-09-20T17:13:57;9.05;;;4.88;;
36923;SDS011;22841;50.252;18.688;2022-09-20T17:16:27;6.65;;;3.90;;
36923;SDS011;22841;50.252;18.688;2022-09-20T17:18:57;10.07;;;5.05;;
36923;SDS011;22841;50.252;18.688;2022-09-20T17:23:56;9.80;;;5.15;;
36923;SDS011;22841;50.252;18.688;2022-09-20T17:26:24;18.05;;;8.15;;
36923;SDS011;22841;50.252;18.688;2022-09-20T17:29:10;42.80;;;16.88;;
36923;SDS011;22841;50.252;18.688;2022-09-20T17:31:40;44.92;;;18.10;;
36923;SDS011;22841;50.252;18.688;2022-09-20T17:34:09;31.98;;;14.30;;
36923;SDS011;22841;50.252;18.688;2022-09-20T17:36:37;21.50;;;9.63;;
36923;SDS011;22841;50.252;18.688;2022-09-20T17:39:04;13.27;;;7.80;;
36923;SDS011;22841;50.252;18.688;2022-09-20T17:41:34;16.35;;;7.15;;
36923;SDS011;22841;50.252;18.688;2022-09-20T17:44:00;11.88;;;7.18;;
36923;SDS011;22841;50.252;18.688;2022-09-20T17:46:33;16.27;;;9.32;;
36923;SDS011;22841;50.252;18.688;2022-09-20T17:49:03;17.00;;;11.65;;
36923;SDS011;22841;50.252;18.688;2022-09-20T17:51:40;24.30;;;16.15;;
36923;SDS011;22841;50.252;18.688;2022-09-20T17:54:10;28.33;;;16.02;;
36923;SDS011;22841;50.252;18.688;2022-09-20T17:56:38;29.83;;;19.05;;
36923;SDS011;22841;50.252;18.688;2022-09-20T17:59:07;24.33;;;16.40;;
36923;SDS011;22841;50.252;18.688;2022-09-20T18:01:34;50.05;;;26.95;;
36923;SDS011;22841;50.252;18.688;2022-09-20T18:04:00;45.50;;;25.08;;
36923;SDS011;22841;50.252;18.688;2022-09-20T18:06:29;37.45;;;21.75;;
36923;SDS011;22841;50.252;18.688;2022-09-20T18:09:00;32.45;;;18.90;;
36923;SDS011;22841;50.252;18.688;2022-09-20T18:11:42;24.90;;;14.00;;
36923;SDS011;22841;50.252;18.688;2022-09-20T18:14:14;25.95;;;14.65;;
36923;SDS011;22841;50.252;18.688;2022-09-20T18:16:44;22.50;;;12.57;;
36923;SDS011;22841;50.252;18.688;2022-09-20T18:19:11;16.42;;;10.90;;
36923;SDS011;22841;50.252;18.688;2022-09-20T18:21:40;18.08;;;13.00;;
36923;SDS011;22841;50.252;18.688;2022-09-20T18:24:07;19.67;;;12.75;;
36923;SDS011;22841;50.252;18.688;2022-09-20T18:26:34;19.00;;;11.55;;
36923;SDS011;22841;50.252;18.688;2022-09-20T18:29:02;20.30;;;12.90;;
36923;SDS011;22841;50.252;18.688;2022-09-20T18:31:31;17.20;;;12.77;;
36923;SDS011;22841;50.252;18.688;2022-09-20T18:36:29;17.13;;;10.50;;
36923;SDS011;22841;50.252;18.688;2022-09-20T18:38:57;22.70;;;13.25;;
36923;SDS011;22841;50.252;18.688;2022-09-20T18:41:27;26.20;;;14.93;;
36923;SDS011;22841;50.252;18.688;2022-09-20T18:43:56;17.13;;;10.32;;
36923;SDS011;22841;50.252;18.688;2022-09-20T18:46:23;15.48;;;9.85;;
36923;SDS011;22841;50.252;18.688;2022-09-20T18:48:51;16.67;;;9.88;;
36923;SDS011;22841;50.252;18.688;2022-09-20T18:51:18;20.58;;;11.13;;
36923;SDS011;22841;50.252;18.688;2022-09-20T18:53:45;22.58;;;13.02;;
36923;SDS011;22841;50.252;18.688;2022-09-20T18:56:19;19.08;;;11.30;;
36923;SDS011;22841;50.252;18.688;2022-09-20T18:59:03;26.50;;;13.45;;
36923;SDS011;22841;50.252;18.688;2022-09-20T19:04:21;32.88;;;17.30;;
36923;SDS011;22841;50.252;18.688;2022-09-20T19:09:26;100.80;;;40.67;;
36923;SDS011;22841;50.252;18.688;2022-09-20T19:12:08;57.20;;;25.52;;
36923;SDS011;22841;50.252;18.688;2022-09-20T19:17:49;34.53;;;18.52;;
36923;SDS011;22841;50.252;18.688;2022-09-20T19:20:47;40.47;;;16.75;;
36923;SDS011;22841;50.252;18.688;2022-09-20T19:23:26;27.10;;;12.30;;
36923;SDS011;22841;50.252;18.688;2022-09-20T19:26:20;22.13;;;11.57;;
36923;SDS011;22841;50.252;18.688;2022-09-20T19:28:47;18.15;;;9.68;;
36923;SDS011;22841;50.252;18.688;2022-09-20T19:31:18;15.00;;;10.77;;
36923;SDS011;22841;50.252;18.688;2022-09-20T19:33:47;21.08;;;10.75;;
36923;SDS011;22841;50.252;18.688;2022-09-20T19:36:14;18.83;;;11.15;;
36923;SDS011;22841;50.252;18.688;2022-09-20T19:39:02;24.73;;;11.07;;
36923;SDS011;22841;50.252;18.688;2022-09-20T19:44:56;17.48;;;10.30;;
36923;SDS011;22841;50.252;18.688;2022-09-20T19:47:13;15.63;;;9.70;;
36923;SDS011;22841;50.252;18.688;2022-09-20T19:49:55;15.25;;;10.00;;
36923;SDS011;22841;50.252;18.688;2022-09-20T19:52:28;16.67;;;10.43;;
36923;SDS011;22841;50.252;18.688;2022-09-20T19:54:55;17.35;;;10.40;;
36923;SDS011;22841;50.252;18.688;2022-09-20T19:57:22;17.33;;;11.30;;
36923;SDS011;22841;50.252;18.688;2022-09-20T19:59:59;25.92;;;16.10;;
36923;SDS011;22841;50.252;18.688;2022-09-20T20:02:26;23.13;;;14.15;;